createdAt,value
2022-12-29T00:02:28.805Z,4.24
2022-12-29T00:05:13.654Z,4.23
2022-12-29T00:07:58.269Z,4.26
2022-12-29T00:10:43.214Z,4.28
2022-12-29T00:13:27.900Z,4.31
2022-12-29T00:16:12.730Z,4.32
2022-12-29T00:18:57.876Z,4.34
2022-12-29T00:21:42.623Z,4.29
2022-12-29T00:24:27.355Z,4.24
2022-12-29T00:27:12.244Z,4.22
2022-12-29T00:29:56.965Z,4.23
2022-12-29T00:32:41.674Z,4.23
2022-12-29T00:35:26.553Z,4.23
2022-12-29T00:38:11.272Z,4.21
2022-12-29T00:40:56.118Z,4.20
2022-12-29T00:43:40.754Z,4.22
2022-12-29T00:46:25.616Z,4.20
2022-12-29T00:49:10.337Z,4.13
2022-12-29T00:51:55.243Z,4.11
2022-12-29T00:54:39.969Z,4.09
2022-12-29T00:57:24.654Z,4.10
2022-12-29T01:00:09.358Z,4.12
2022-12-29T01:02:54.115Z,4.03
2022-12-29T01:05:40.326Z,3.93
2022-12-29T01:08:25.003Z,3.94
2022-12-29T01:11:09.769Z,3.92
2022-12-29T01:13:54.415Z,3.99
2022-12-29T01:16:39.146Z,4.06
2022-12-29T01:19:23.875Z,3.93
2022-12-29T01:22:08.531Z,3.88
2022-12-29T01:24:53.345Z,3.80
2022-12-29T01:27:38.147Z,3.75
2022-12-29T01:30:22.988Z,3.73
2022-12-29T01:33:07.658Z,3.77
2022-12-29T01:35:52.485Z,3.76
2022-12-29T01:38:37.259Z,3.77
2022-12-29T01:41:21.975Z,3.74
2022-12-29T01:44:06.578Z,3.77
2022-12-29T01:46:52.366Z,3.71
2022-12-29T01:49:36.933Z,3.64
2022-12-29T01:52:21.817Z,3.64
2022-12-29T01:55:06.579Z,3.65
2022-12-29T01:57:51.425Z,3.71
2022-12-29T02:00:36.322Z,3.67
2022-12-29T02:03:20.967Z,3.60
2022-12-29T02:06:05.651Z,3.57
2022-12-29T02:08:50.419Z,3.64
2022-12-29T02:11:35.262Z,3.63
2022-12-29T02:14:19.999Z,3.52
2022-12-29T02:17:04.870Z,3.53
2022-12-29T02:19:49.670Z,3.58
2022-12-29T02:22:34.461Z,3.63
2022-12-29T02:25:19.262Z,3.64
2022-12-29T02:28:04.059Z,3.63
2022-12-29T02:30:48.907Z,3.55
2022-12-29T02:33:33.642Z,3.57
2022-12-29T02:36:18.388Z,3.67
2022-12-29T02:39:02.996Z,3.75
2022-12-29T02:41:47.761Z,3.78
2022-12-29T02:44:32.443Z,3.78
2022-12-29T02:47:17.356Z,3.82
2022-12-29T02:50:03.674Z,3.88
2022-12-29T02:52:48.593Z,3.89
2022-12-29T02:55:33.458Z,3.88
2022-12-29T02:58:18.678Z,3.87
2022-12-29T03:01:03.547Z,3.73
2022-12-29T03:03:48.764Z,3.67
2022-12-29T03:06:33.510Z,3.74
2022-12-29T03:09:19.427Z,3.85
2022-12-29T03:12:04.664Z,3.95
2022-12-29T03:14:49.517Z,4.08
2022-12-29T03:17:34.247Z,4.07
2022-12-29T03:20:18.964Z,3.97
2022-12-29T03:23:03.633Z,3.91
2022-12-29T03:25:48.399Z,3.86
2022-12-29T03:28:33.211Z,3.85
2022-12-29T03:31:19.437Z,3.91
2022-12-29T03:34:04.121Z,3.94
2022-12-29T03:36:48.760Z,3.87
2022-12-29T03:39:33.535Z,3.76
2022-12-29T03:42:18.654Z,3.77
2022-12-29T03:45:03.459Z,3.73
2022-12-29T03:47:48.113Z,3.71
2022-12-29T03:50:32.849Z,3.68
2022-12-29T03:53:17.408Z,3.73
2022-12-29T03:56:02.019Z,3.81
2022-12-29T03:58:46.799Z,3.90
2022-12-29T04:01:31.608Z,4.10
2022-12-29T04:04:16.791Z,4.24
2022-12-29T04:07:02.524Z,4.39
2022-12-29T04:09:47.349Z,4.47
2022-12-29T04:12:32.085Z,4.50
2022-12-29T04:15:16.860Z,4.61
2022-12-29T04:18:03.060Z,4.66
2022-12-29T04:20:47.923Z,4.48
2022-12-29T04:23:32.782Z,4.33
2022-12-29T04:26:17.525Z,4.28
2022-12-29T04:29:02.355Z,4.45
2022-12-29T04:31:47.036Z,4.57
2022-12-29T04:34:32.412Z,4.55
2022-12-29T04:37:17.053Z,4.65
2022-12-29T04:40:01.837Z,4.62
2022-12-29T04:42:46.525Z,4.61
2022-12-29T04:45:31.283Z,4.65
2022-12-29T04:48:16.014Z,4.66
2022-12-29T04:51:00.781Z,4.73
2022-12-29T04:53:45.545Z,4.82
2022-12-29T04:56:30.192Z,4.94
2022-12-29T04:59:15.045Z,4.91
2022-12-29T05:01:59.909Z,5.00
2022-12-29T05:04:45.245Z,4.91
2022-12-29T05:07:29.871Z,4.84
2022-12-29T05:10:14.578Z,4.80
2022-12-29T05:12:59.281Z,4.74
2022-12-29T05:15:44.181Z,4.71
2022-12-29T05:18:28.866Z,4.89
2022-12-29T05:21:13.628Z,4.92
2022-12-29T05:23:58.358Z,4.81
2022-12-29T05:26:43.112Z,4.67
2022-12-29T05:29:27.913Z,4.56
2022-12-29T05:32:12.688Z,4.47
2022-12-29T05:34:57.374Z,4.42
2022-12-29T05:37:41.959Z,4.39
2022-12-29T05:40:26.773Z,4.49
2022-12-29T05:43:11.436Z,4.64
2022-12-29T05:45:56.340Z,4.77
2022-12-29T05:48:41.069Z,4.84
2022-12-29T05:51:25.739Z,4.81
2022-12-29T05:54:10.549Z,4.80
2022-12-29T05:56:55.465Z,4.80
2022-12-29T05:59:40.246Z,4.83
2022-12-29T06:02:25.012Z,4.83
2022-12-29T06:05:10.285Z,4.72
2022-12-29T06:07:54.990Z,4.70
2022-12-29T06:10:39.916Z,4.79
2022-12-29T06:13:24.579Z,4.83
2022-12-29T06:16:09.461Z,4.81
2022-12-29T06:18:54.832Z,4.75
2022-12-29T06:21:39.637Z,4.73
2022-12-29T06:24:24.539Z,4.75
2022-12-29T06:27:09.292Z,4.71
2022-12-29T06:29:53.969Z,4.68
2022-12-29T06:32:38.719Z,4.64
2022-12-29T06:35:23.493Z,4.66
2022-12-29T06:38:08.083Z,4.67
2022-12-29T06:40:52.777Z,4.69
2022-12-29T06:43:37.474Z,4.80
2022-12-29T06:46:22.286Z,4.88
2022-12-29T06:49:07.567Z,5.03
2022-12-29T06:51:52.304Z,5.15
2022-12-29T06:54:36.997Z,5.27
2022-12-29T06:57:21.750Z,5.37
2022-12-29T07:00:06.395Z,5.43
2022-12-29T07:02:52.167Z,5.50
2022-12-29T07:05:37.187Z,5.45
2022-12-29T07:08:21.913Z,5.40
2022-12-29T07:11:06.590Z,5.39
2022-12-29T07:13:51.437Z,5.25
2022-12-29T07:16:36.316Z,5.06
2022-12-29T07:19:21.195Z,4.93
2022-12-29T07:22:05.890Z,4.97
2022-12-29T07:24:50.677Z,5.08
2022-12-29T07:27:35.476Z,5.08
2022-12-29T07:30:20.277Z,5.04
2022-12-29T07:33:05.122Z,5.10
2022-12-29T07:35:49.792Z,5.16
2022-12-29T07:38:34.592Z,5.24
2022-12-29T07:41:19.281Z,5.14
2022-12-29T07:44:04.032Z,5.14
2022-12-29T07:46:54.639Z,5.17
2022-12-29T07:49:41.547Z,5.23
2022-12-29T07:52:26.224Z,5.13
2022-12-29T07:55:10.958Z,5.09
2022-12-29T07:57:55.824Z,5.13
2022-12-29T08:00:40.576Z,5.21
2022-12-29T08:03:25.319Z,5.20
2022-12-29T08:06:10.025Z,5.21
2022-12-29T08:08:54.671Z,5.21
2022-12-29T08:11:39.296Z,5.19
2022-12-29T08:14:24.021Z,5.14
2022-12-29T08:17:08.753Z,5.16
2022-12-29T08:19:53.572Z,5.16
2022-12-29T08:22:38.485Z,5.12
2022-12-29T08:25:23.265Z,5.09
2022-12-29T08:28:09.220Z,5.17
2022-12-29T08:30:53.943Z,5.26
2022-12-29T08:33:38.728Z,5.26
2022-12-29T08:36:23.548Z,5.38
2022-12-29T08:39:08.820Z,5.50
2022-12-29T08:41:53.638Z,5.56
2022-12-29T08:44:38.388Z,5.62
2022-12-29T08:47:23.339Z,5.60
2022-12-29T08:50:08.495Z,5.56
2022-12-29T08:52:53.242Z,5.63
2022-12-29T08:55:37.998Z,5.74
2022-12-29T08:58:22.980Z,5.88
2022-12-29T09:01:08.329Z,5.99
2022-12-29T09:06:58.074Z,6.23
2022-12-29T09:09:42.821Z,6.26
2022-12-29T09:12:32.942Z,6.39
2022-12-29T09:15:20.855Z,6.55
2022-12-29T09:18:05.698Z,6.65
2022-12-29T09:20:50.329Z,6.85
2022-12-29T09:23:35.189Z,6.96
2022-12-29T09:26:19.884Z,7.08
2022-12-29T09:29:04.641Z,7.20
2022-12-29T09:31:49.330Z,7.23
2022-12-29T09:34:34.705Z,7.17
2022-12-29T09:37:19.393Z,7.12
2022-12-29T09:40:04.070Z,7.02
2022-12-29T09:42:48.966Z,7.02
2022-12-29T09:45:33.719Z,6.98
2022-12-29T09:48:18.543Z,7.07
2022-12-29T09:51:03.207Z,7.41
2022-12-29T09:53:48.141Z,7.63
2022-12-29T09:56:32.797Z,7.85
2022-12-29T09:59:18.251Z,7.97
2022-12-29T10:02:03.122Z,7.88
2022-12-29T10:04:48.274Z,7.82
2022-12-29T10:07:33.020Z,8.14
2022-12-29T10:10:18.250Z,8.35
2022-12-29T10:13:02.986Z,8.06
2022-12-29T10:15:47.576Z,8.00
2022-12-29T10:18:32.312Z,8.08
2022-12-29T10:21:16.888Z,8.14
2022-12-29T10:24:01.655Z,8.15
2022-12-29T10:26:46.334Z,8.11
2022-12-29T10:29:31.144Z,8.10
2022-12-29T10:32:15.824Z,8.11
2022-12-29T10:35:00.842Z,8.16
2022-12-29T10:37:45.566Z,8.43
2022-12-29T10:40:30.369Z,8.69
2022-12-29T10:43:20.954Z,8.97
2022-12-29T10:46:06.177Z,9.22
2022-12-29T10:48:51.363Z,9.35
2022-12-29T10:51:36.285Z,9.54
2022-12-29T10:54:20.901Z,9.65
2022-12-29T10:57:05.556Z,9.80
2022-12-29T10:59:50.183Z,9.82
2022-12-29T11:02:35.108Z,9.87
2022-12-29T11:05:20.323Z,9.58
2022-12-29T11:08:05.059Z,9.14
2022-12-29T11:10:49.713Z,8.97
2022-12-29T11:13:38.951Z,9.11
2022-12-29T11:16:24.554Z,9.12
2022-12-29T11:19:09.373Z,8.95
2022-12-29T11:21:54.194Z,8.78
2022-12-29T11:24:39.049Z,8.95
2022-12-29T11:27:23.847Z,9.16
2022-12-29T11:30:08.498Z,9.41
2022-12-29T11:32:53.068Z,9.68
2022-12-29T11:35:37.926Z,9.82
2022-12-29T11:38:22.758Z,9.44
2022-12-29T11:41:07.581Z,9.52
2022-12-29T11:43:52.364Z,9.53
2022-12-29T11:46:37.441Z,9.39
2022-12-29T11:49:22.047Z,9.37
2022-12-29T11:52:06.751Z,9.39
2022-12-29T11:54:51.582Z,9.47
2022-12-29T11:57:36.151Z,9.53
2022-12-29T12:00:21.124Z,9.57
2022-12-29T12:03:05.869Z,9.71
2022-12-29T12:05:51.049Z,9.77
2022-12-29T12:08:36.181Z,9.81
2022-12-29T12:11:21.257Z,9.83
2022-12-29T12:14:05.985Z,9.90
2022-12-29T12:16:50.934Z,10.02
2022-12-29T12:19:36.087Z,9.91
2022-12-29T12:22:20.926Z,9.75
2022-12-29T12:25:05.739Z,9.55
2022-12-29T12:27:50.448Z,9.39
2022-12-29T12:30:35.409Z,9.31
2022-12-29T12:33:20.471Z,9.26
2022-12-29T12:36:05.258Z,9.30
2022-12-29T12:38:49.894Z,9.33
2022-12-29T12:41:34.752Z,9.46
2022-12-29T12:44:19.652Z,9.54
2022-12-29T12:47:04.423Z,9.61
2022-12-29T12:49:49.098Z,9.63
2022-12-29T12:52:33.941Z,9.46
2022-12-29T12:55:18.807Z,9.49
2022-12-29T12:58:03.591Z,9.52
2022-12-29T13:00:48.399Z,9.65
2022-12-29T13:03:33.133Z,9.80
2022-12-29T13:06:17.838Z,9.85
2022-12-29T13:09:02.643Z,9.94
2022-12-29T13:11:47.305Z,10.07
2022-12-29T13:14:32.122Z,10.14
2022-12-29T13:17:16.854Z,10.25
2022-12-29T13:20:01.760Z,10.35
2022-12-29T13:22:46.441Z,10.46
2022-12-29T13:25:31.294Z,10.54
2022-12-29T13:28:15.988Z,10.69
2022-12-29T13:31:00.882Z,10.82
2022-12-29T13:33:45.950Z,10.84
2022-12-29T13:36:30.766Z,10.63
2022-12-29T13:39:20.668Z,10.58
2022-12-29T13:42:06.342Z,10.48
2022-12-29T13:44:51.271Z,10.57
2022-12-29T13:47:36.126Z,10.69
2022-12-29T13:50:20.858Z,10.69
2022-12-29T13:53:05.631Z,10.67
2022-12-29T13:55:50.442Z,10.64
2022-12-29T13:58:35.328Z,10.58
2022-12-29T14:01:20.204Z,10.54
2022-12-29T14:04:05.441Z,10.49
2022-12-29T14:06:50.117Z,10.43
2022-12-29T14:09:35.642Z,10.40
2022-12-29T14:12:20.840Z,10.39
2022-12-29T14:15:05.647Z,10.38
2022-12-29T14:17:50.481Z,10.42
2022-12-29T14:20:35.254Z,10.45
2022-12-29T14:23:19.932Z,10.38
2022-12-29T14:26:04.657Z,10.21
2022-12-29T14:28:49.319Z,10.10
2022-12-29T14:31:33.974Z,10.12
2022-12-29T14:34:19.156Z,10.10
2022-12-29T14:37:03.975Z,10.01
2022-12-29T14:39:48.716Z,9.91
2022-12-29T14:42:33.449Z,9.80
2022-12-29T14:45:18.310Z,9.61
2022-12-29T14:48:03.256Z,9.51
2022-12-29T14:50:48.089Z,9.30
2022-12-29T14:53:32.845Z,9.09
2022-12-29T14:56:17.455Z,9.13
2022-12-29T14:59:02.252Z,9.17
2022-12-29T15:01:47.066Z,9.13
2022-12-29T15:04:32.270Z,9.10
2022-12-29T15:07:20.304Z,9.09
2022-12-29T15:10:05.121Z,9.03
2022-12-29T15:12:50.399Z,9.03
2022-12-29T15:15:35.127Z,9.02
2022-12-29T15:18:19.872Z,9.05
2022-12-29T15:21:04.614Z,8.97
2022-12-29T15:23:49.402Z,8.87
2022-12-29T15:26:34.270Z,8.66
2022-12-29T15:29:18.891Z,8.46
2022-12-29T15:32:03.699Z,8.38
2022-12-29T15:34:48.487Z,8.29
2022-12-29T15:37:33.255Z,8.12
2022-12-29T15:40:17.967Z,7.96
2022-12-29T15:43:02.795Z,7.89
2022-12-29T15:45:47.594Z,7.86
2022-12-29T15:48:32.186Z,7.90
2022-12-29T15:51:16.860Z,7.95
2022-12-29T15:54:01.672Z,7.97
2022-12-29T15:56:46.628Z,7.96
2022-12-29T15:59:31.311Z,8.01
2022-12-29T16:02:16.290Z,8.16
2022-12-29T16:05:17.297Z,8.27
2022-12-29T16:08:03.150Z,8.42
2022-12-29T16:10:48.023Z,8.56
2022-12-29T16:13:39.596Z,8.68
2022-12-29T16:16:25.437Z,8.83
2022-12-29T16:19:10.780Z,8.85
2022-12-29T16:21:56.045Z,8.80
2022-12-29T16:24:40.975Z,8.77
2022-12-29T16:27:25.827Z,8.72
2022-12-29T16:30:10.915Z,8.62
2022-12-29T16:32:55.523Z,8.54
2022-12-29T16:35:40.454Z,8.48
2022-12-29T16:38:25.139Z,8.48
2022-12-29T16:41:09.941Z,8.42
2022-12-29T16:43:54.562Z,8.32
2022-12-29T16:46:39.400Z,8.25
2022-12-29T16:49:24.188Z,8.29
2022-12-29T16:52:08.841Z,8.25
2022-12-29T16:54:53.557Z,8.33
2022-12-29T16:57:38.225Z,8.37
2022-12-29T17:00:22.919Z,8.34
2022-12-29T17:03:08.307Z,8.36
2022-12-29T17:05:57.520Z,8.33
2022-12-29T17:08:43.062Z,8.24
2022-12-29T17:11:27.732Z,8.19
2022-12-29T17:14:12.518Z,8.27
2022-12-29T17:16:57.702Z,8.27
2022-12-29T17:19:42.887Z,8.24
2022-12-29T17:22:27.701Z,8.20
2022-12-29T17:25:12.539Z,8.11
2022-12-29T17:27:57.313Z,7.95
2022-12-29T17:30:42.144Z,7.84
2022-12-29T17:33:27.462Z,7.80
2022-12-29T17:36:12.271Z,7.88
2022-12-29T17:38:57.649Z,7.94
2022-12-29T17:41:42.470Z,7.92
2022-12-29T17:44:27.319Z,7.85
2022-12-29T17:47:12.173Z,7.89
2022-12-29T17:49:57.033Z,7.89
2022-12-29T17:52:41.860Z,7.93
2022-12-29T17:55:31.264Z,7.89
2022-12-29T17:58:19.811Z,7.82
2022-12-29T18:01:04.661Z,7.74
2022-12-29T18:03:49.357Z,7.72
2022-12-29T18:06:34.646Z,7.88
2022-12-29T18:09:19.463Z,8.04
2022-12-29T18:12:04.513Z,8.11
2022-12-29T18:14:49.503Z,8.10
2022-12-29T18:17:34.273Z,8.09
2022-12-29T18:20:19.070Z,7.99
2022-12-29T18:23:03.754Z,7.94
2022-12-29T18:25:48.566Z,7.77
2022-12-29T18:28:33.276Z,7.78
2022-12-29T18:31:18.186Z,7.75
2022-12-29T18:34:05.238Z,7.74
2022-12-29T18:36:50.197Z,7.78
2022-12-29T18:39:35.102Z,7.91
2022-12-29T18:42:19.778Z,8.00
2022-12-29T18:45:04.619Z,8.05
2022-12-29T18:47:49.296Z,8.07
2022-12-29T18:50:34.063Z,8.03
2022-12-29T18:53:18.785Z,7.98
2022-12-29T18:56:03.620Z,7.91
2022-12-29T18:58:48.333Z,7.79
2022-12-29T19:01:33.075Z,7.77
2022-12-29T19:04:18.218Z,7.76
2022-12-29T19:07:02.986Z,7.75
2022-12-29T19:09:47.815Z,7.87
2022-12-29T19:12:32.732Z,7.97
2022-12-29T19:15:17.848Z,7.94
2022-12-29T19:18:42.004Z,7.94
2022-12-29T19:21:07.262Z,7.90
2022-12-29T19:23:52.199Z,7.86
2022-12-29T19:26:37.182Z,7.88
2022-12-29T19:29:22.218Z,7.90
2022-12-29T19:32:06.931Z,7.89
2022-12-29T19:34:51.854Z,7.79
2022-12-29T19:37:36.817Z,7.73
2022-12-29T19:40:21.477Z,7.74
2022-12-29T19:43:06.297Z,7.75
2022-12-29T19:45:51.019Z,7.73
2022-12-29T19:48:35.880Z,7.73
2022-12-29T19:51:20.608Z,7.65
2022-12-29T19:54:05.373Z,7.56
2022-12-29T19:56:50.150Z,7.50
2022-12-29T19:59:35.011Z,7.55
2022-12-29T20:02:19.883Z,7.50
2022-12-29T20:05:05.072Z,7.45
2022-12-29T20:07:49.796Z,7.43
2022-12-29T20:10:34.610Z,7.45
2022-12-29T20:13:19.494Z,7.51
2022-12-29T20:16:04.233Z,7.60
2022-12-29T20:18:49.096Z,7.66
2022-12-29T20:21:34.149Z,7.70
2022-12-29T20:24:18.853Z,7.63
2022-12-29T20:27:03.461Z,7.58
2022-12-29T20:29:48.349Z,7.60
2022-12-29T20:32:33.144Z,7.56
2022-12-29T20:35:17.749Z,7.64
2022-12-29T20:38:02.678Z,7.68
2022-12-29T20:40:47.389Z,7.70
2022-12-29T20:43:32.310Z,7.74
2022-12-29T20:46:21.430Z,7.63
2022-12-29T20:49:07.359Z,7.64
2022-12-29T20:52:07.599Z,7.61
2022-12-29T20:54:52.517Z,7.54
2022-12-29T20:58:05.581Z,7.50
2022-12-29T21:00:42.421Z,7.36
2022-12-29T21:03:27.184Z,7.31
2022-12-29T21:06:12.026Z,7.28
2022-12-29T21:08:56.678Z,7.31
2022-12-29T21:11:41.548Z,7.42
2022-12-29T21:14:26.349Z,7.52
2022-12-29T21:17:11.268Z,7.53
2022-12-29T21:19:55.900Z,7.55
2022-12-29T21:22:40.706Z,7.66
2022-12-29T21:25:25.480Z,7.70
2022-12-29T21:28:10.229Z,7.66
2022-12-29T21:30:55.570Z,7.68
2022-12-29T21:33:40.197Z,7.72
2022-12-29T21:36:24.915Z,7.73
2022-12-29T21:39:09.791Z,7.71
2022-12-29T21:41:54.647Z,7.79
2022-12-29T21:44:39.417Z,7.76
2022-12-29T21:47:24.137Z,7.75
2022-12-29T21:50:08.852Z,7.79
2022-12-29T21:52:53.578Z,7.72
2022-12-29T21:55:38.373Z,7.62
2022-12-29T21:58:23.041Z,7.63
2022-12-29T22:01:07.912Z,7.63
2022-12-29T22:03:52.676Z,7.52
2022-12-29T22:06:37.542Z,7.41
2022-12-29T22:09:22.203Z,7.28
2022-12-29T22:12:07.027Z,7.16
2022-12-29T22:14:51.679Z,7.04
2022-12-29T22:17:37.850Z,6.94
2022-12-29T22:20:23.097Z,6.92
2022-12-29T22:23:07.832Z,6.93
2022-12-29T22:25:52.609Z,6.93
2022-12-29T22:28:37.802Z,6.97
2022-12-29T22:31:22.656Z,6.92
2022-12-29T22:34:07.242Z,6.93
2022-12-29T22:36:52.112Z,6.91
2022-12-29T22:39:36.906Z,6.95
2022-12-29T22:42:21.514Z,7.04
2022-12-29T22:45:06.301Z,7.09
2022-12-29T22:47:51.134Z,7.01
2022-12-29T22:50:35.888Z,7.01
2022-12-29T22:53:20.630Z,7.02
2022-12-29T22:56:05.465Z,7.14
2022-12-29T22:58:50.074Z,7.19
2022-12-29T23:01:34.917Z,7.22
2022-12-29T23:05:01.617Z,7.28
2022-12-29T23:07:25.000Z,7.33
2022-12-29T23:10:09.719Z,7.29
2022-12-29T23:12:54.353Z,7.33
2022-12-29T23:15:39.230Z,7.33
2022-12-29T23:18:23.868Z,7.34
2022-12-29T23:21:08.755Z,7.31
2022-12-29T23:23:53.520Z,7.20
2022-12-29T23:26:38.313Z,7.20
2022-12-29T23:29:23.144Z,7.20
2022-12-29T23:32:07.930Z,7.22
2022-12-29T23:34:53.325Z,7.19
2022-12-29T23:37:38.217Z,7.14
2022-12-29T23:40:22.960Z,7.18
2022-12-29T23:43:07.748Z,7.17
2022-12-29T23:45:52.560Z,7.07
2022-12-29T23:48:37.255Z,6.98
2022-12-29T23:51:22.096Z,6.96
2022-12-29T23:54:06.822Z,6.86
2022-12-29T23:56:51.466Z,6.75
2022-12-29T23:59:36.186Z,6.69
